Terminal Aerodrome Forecast
Issued by NWS Albany, NY

Home | Current Version | Previous Version | Text Only | Print | Product List | Glossary On
Versions: 1 2 3 4 5 6 7 8 9 10 11 12 13 14 15 16 17 18 19 20 21 22 23 24 25
000
FTUS41 KALY 280600 AAA
TAFGFL
TAF AMD
KGFL 280650Z 2807/2906 00000KT 6SM -SN BR OVC035
      TEMPO 2807/2808 3SM -SN BR BKN025 OVC035
     FM280800 00000KT P6SM VCSH OVC035
      TEMPO 2808/2811 5SM -SN BR
     FM281400 31007KT P6SM BKN045
     FM290000 VRB03KT P6SM BKN040=

USA.gov is the U.S. government's official web portal to all federal, state and local government web resources and services.